Time;durP1;ratioP1;P1;durP2;ratioP2;P2;SDS_P1;SDS_P2;PMS_P1;PMS_P2;Temp;Humidity;BMP_temperature;BMP_pressure;BME280_temperature;BME280_humidity;BME280_pressure;Samples;Min_cycle;Max_cycle;Signal;HPM_P1;HPM_P2
2023/06/11 00:03:58;;;;;;;;;;;14.30;99.90;;;;;;8348664;28;19909;-79
2023/06/11 00:08:02;;;;;;;;;;;14.40;99.90;;;;;;8340651;28;19912;-78
2023/06/11 00:12:02;;;;;;;;;;;14.40;99.90;;;;;;8335698;28;19913;-78
2023/06/11 00:16:03;;;;;;;;;;;14.70;99.90;;;;;;8343316;28;20365;-78
2023/06/11 00:20:09;;;;;;;;;;;14.90;99.90;;;;;;8352916;28;19917;-79
2023/06/11 00:24:11;;;;;;;;;;;14.90;99.90;;;;;;8342345;28;19956;-78
2023/06/11 00:28:11;;;;;;;;;;;15.00;99.90;;;;;;8361180;28;19909;-78
2023/06/11 00:32:12;;;;;;;;;;;15.00;99.90;;;;;;8351713;28;19913;-78
2023/06/11 00:36:12;;;;;;;;;;;14.70;99.90;;;;;;8339170;28;20008;-79
2023/06/11 00:40:13;;;;;;;;;;;14.40;99.90;;;;;;8357797;28;20388;-78
2023/06/11 00:44:17;;;;;;;;;;;14.40;99.90;;;;;;8341283;28;20385;-79
2023/06/11 00:48:21;;;;;;;;;;;14.70;99.90;;;;;;8360444;28;19958;-78
2023/06/11 00:52:21;;;;;;;;;;;14.90;99.90;;;;;;8336427;28;20022;-79
2023/06/11 00:56:25;;;;;;;;;;;14.70;99.90;;;;;;8357116;28;19913;-79
2023/06/11 01:00:26;;;;;;;;;;;14.50;99.90;;;;;;8345636;28;19912;-79
2023/06/11 01:04:29;;;;;;;;;;;14.40;99.90;;;;;;8348231;28;19920;-78
2023/06/11 01:08:30;;;;;;;;;;;14.10;99.90;;;;;;8357557;28;19964;-78
2023/06/11 01:12:30;;;;;;;;;;;14.20;99.90;;;;;;8358545;28;20396;-77
2023/06/11 01:16:37;;;;;;;;;;;14.10;99.90;;;;;;8356647;28;19934;-78
2023/06/11 01:20:40;;;;;;;;;;;14.00;99.90;;;;;;8358769;28;19919;-78
2023/06/11 01:24:53;;;;;;;;;;;13.70;99.90;;;;;;8329646;28;19928;-78
2023/06/11 01:28:58;;;;;;;;;;;13.80;99.90;;;;;;8349480;28;20365;-78
2023/06/11 01:32:59;;;;;;;;;;;14.10;99.90;;;;;;8349891;28;19909;-78
2023/06/11 01:36:59;;;;;;;;;;;14.40;99.90;;;;;;8351445;28;19930;-77
2023/06/11 01:41:01;;;;;;;;;;;14.50;99.90;;;;;;8332256;28;19991;-78
2023/06/11 01:45:01;;;;;;;;;;;14.10;99.90;;;;;;8349637;28;19916;-78
2023/06/11 01:49:02;;;;;;;;;;;14.10;99.90;;;;;;8356996;28;19909;-78
2023/06/11 01:53:02;;;;;;;;;;;14.00;99.90;;;;;;8343691;28;19951;-78
2023/06/11 01:57:03;;;;;;;;;;;13.80;99.90;;;;;;8339327;28;19909;-78
2023/06/11 02:01:03;;;;;;;;;;;13.60;99.90;;;;;;8356864;28;19956;-78
2023/06/11 02:05:04;;;;;;;;;;;13.50;99.90;;;;;;8354748;28;20292;-78
2023/06/11 02:09:05;;;;;;;;;;;13.30;99.90;;;;;;8339203;28;19944;-77
2023/06/11 02:13:05;;;;;;;;;;;13.10;99.90;;;;;;8347233;28;19916;-78
2023/06/11 02:17:06;;;;;;;;;;;12.90;99.90;;;;;;8352916;28;19913;-78
2023/06/11 02:21:06;;;;;;;;;;;12.80;99.90;;;;;;8344698;28;19917;-79
2023/06/11 02:25:07;;;;;;;;;;;12.80;99.90;;;;;;8336666;28;20358;-78
2023/06/11 02:29:07;;;;;;;;;;;13.00;99.90;;;;;;8356473;28;20455;-78
2023/06/11 02:33:08;;;;;;;;;;;12.90;99.90;;;;;;8351896;28;19909;-78
2023/06/11 02:37:08;;;;;;;;;;;13.30;99.90;;;;;;8339242;28;19955;-78
2023/06/11 02:41:09;;;;;;;;;;;13.00;99.90;;;;;;8340366;28;19925;-78
2023/06/11 02:45:09;;;;;;;;;;;12.90;99.90;;;;;;8362039;28;20504;-78
2023/06/11 02:49:10;;;;;;;;;;;12.80;99.90;;;;;;8358531;28;20302;-78
2023/06/11 02:53:10;;;;;;;;;;;12.70;99.90;;;;;;8351849;28;19912;-78
2023/06/11 02:57:11;;;;;;;;;;;12.80;99.90;;;;;;8354808;28;19909;-79
2023/06/11 03:01:11;;;;;;;;;;;12.60;99.90;;;;;;8323047;28;20332;-79
2023/06/11 03:05:12;;;;;;;;;;;12.60;99.90;;;;;;8361288;28;19942;-78
2023/06/11 03:09:12;;;;;;;;;;;12.60;99.90;;;;;;8361296;28;19916;-78
2023/06/11 03:13:13;;;;;;;;;;;12.50;99.90;;;;;;8348478;28;19921;-79
2023/06/11 03:17:13;;;;;;;;;;;12.50;99.90;;;;;;8361980;28;20141;-78
2023/06/11 03:21:14;;;;;;;;;;;12.40;99.90;;;;;;8335565;28;20337;-78
2023/06/11 03:25:14;;;;;;;;;;;12.40;99.90;;;;;;8354182;28;19919;-77
2023/06/11 03:29:15;;;;;;;;;;;12.70;99.90;;;;;;8352553;28;19908;-78
2023/06/11 03:33:15;;;;;;;;;;;12.90;99.90;;;;;;8335212;28;19923;-78
2023/06/11 03:37:16;;;;;;;;;;;12.80;99.90;;;;;;8341513;28;19913;-77
2023/06/11 03:41:16;;;;;;;;;;;12.90;99.90;;;;;;8334606;28;20355;-78
2023/06/11 03:45:17;;;;;;;;;;;12.60;99.90;;;;;;8351105;28;20389;-78
2023/06/11 03:49:17;;;;;;;;;;;12.10;99.90;;;;;;8354469;28;19999;-78
2023/06/11 03:53:18;;;;;;;;;;;12.20;99.90;;;;;;8360046;28;20352;-78
2023/06/11 03:57:18;;;;;;;;;;;12.00;99.90;;;;;;8359963;28;19913;-78
2023/06/11 04:01:19;;;;;;;;;;;12.20;99.90;;;;;;8353158;28;19924;-78
2023/06/11 04:05:19;;;;;;;;;;;12.60;99.90;;;;;;8350092;28;20382;-79
2023/06/11 04:09:20;;;;;;;;;;;13.10;99.90;;;;;;8345983;28;20027;-78
2023/06/11 04:13:20;;;;;;;;;;;13.40;99.90;;;;;;8359999;28;19995;-78
2023/06/11 04:17:21;;;;;;;;;;;13.50;99.90;;;;;;8360948;28;19909;-78
2023/06/11 04:21:21;;;;;;;;;;;14.10;99.90;;;;;;8359244;28;19924;-78
2023/06/11 04:25:22;;;;;;;;;;;14.60;99.90;;;;;;8358880;28;19943;-78
2023/06/11 04:29:23;;;;;;;;;;;15.00;99.90;;;;;;8348422;28;19996;-77
2023/06/11 04:33:32;;;;;;;;;;;15.00;99.90;;;;;;8331242;28;19913;-78
2023/06/11 04:37:38;;;;;;;;;;;15.30;99.90;;;;;;8359428;28;19913;-78
2023/06/11 04:41:39;;;;;;;;;;;15.60;99.90;;;;;;8343712;28;20012;-78
2023/06/11 04:45:40;;;;;;;;;;;16.60;99.90;;;;;;8355895;28;20377;-79
2023/06/11 04:49:40;;;;;;;;;;;17.40;99.90;;;;;;8355091;28;19921;-79
2023/06/11 04:53:41;;;;;;;;;;;18.20;99.90;;;;;;8332411;28;19916;-78
2023/06/11 04:57:41;;;;;;;;;;;18.60;99.90;;;;;;8341389;28;19917;-78
2023/06/11 05:01:46;;;;;;;;;;;18.60;99.90;;;;;;8339596;28;19972;-79
2023/06/11 05:05:51;;;;;;;;;;;18.50;99.90;;;;;;8355711;28;19913;-79
2023/06/11 05:09:51;;;;;;;;;;;18.50;99.90;;;;;;8359806;28;20015;-79
2023/06/11 05:13:52;;;;;;;;;;;18.50;99.90;;;;;;8356237;28;19920;-77
2023/06/11 05:17:52;;;;;;;;;;;18.60;99.90;;;;;;8325768;28;19947;-79
2023/06/11 05:21:53;;;;;;;;;;;18.70;99.90;;;;;;8357102;28;19921;-80
2023/06/11 05:25:53;;;;;;;;;;;18.70;99.90;;;;;;8336934;28;19956;-78
2023/06/11 05:29:53;;;;;;;;;;;19.10;99.90;;;;;;8351671;28;19978;-78
2023/06/11 05:33:54;;;;;;;;;;;18.80;99.90;;;;;;8350239;28;19923;-78
2023/06/11 05:37:55;;;;;;;;;;;18.60;99.90;;;;;;8347874;28;19924;-79
2023/06/11 05:41:55;;;;;;;;;;;18.50;99.90;;;;;;8347981;28;19917;-78
2023/06/11 05:45:56;;;;;;;;;;;19.00;99.90;;;;;;8346264;28;19920;-79
2023/06/11 05:49:56;;;;;;;;;;;18.30;99.90;;;;;;8355687;28;20007;-79
2023/06/11 05:54:01;;;;;;;;;;;18.40;99.90;;;;;;8333753;28;19917;-79
2023/06/11 05:58:01;;;;;;;;;;;18.60;99.90;;;;;;8352285;28;19921;-78
2023/06/11 06:02:02;;;;;;;;;;;18.70;99.90;;;;;;8345121;28;19927;-78
2023/06/11 06:06:03;;;;;;;;;;;18.80;99.90;;;;;;8353865;28;19913;-78
2023/06/11 06:10:03;;;;;;;;;;;19.40;99.90;;;;;;8333387;28;20305;-79
2023/06/11 06:14:04;;;;;;;;;;;20.20;99.90;;;;;;8335858;28;19986;-79
2023/06/11 06:18:05;;;;;;;;;;;20.80;99.90;;;;;;8352701;28;20034;-79
2023/06/11 06:22:05;;;;;;;;;;;22.20;99.90;;;;;;8337125;28;19921;-80
2023/06/11 06:26:06;;;;;;;;;;;23.30;99.90;;;;;;8350900;28;19916;-79
2023/06/11 06:30:06;;;;;;;;;;;23.00;99.90;;;;;;8354483;28;19916;-80
2023/06/11 06:34:07;;;;;;;;;;;23.20;99.90;;;;;;8330398;28;19913;-79
2023/06/11 06:38:08;;;;;;;;;;;23.70;99.90;;;;;;8338864;28;20377;-80
2023/06/11 06:42:08;;;;;;;;;;;24.10;99.90;;;;;;8356772;28;20423;-79
2023/06/11 06:46:09;;;;;;;;;;;24.20;99.90;;;;;;8349474;28;19913;-79
2023/06/11 06:50:09;;;;;;;;;;;24.10;99.90;;;;;;8357249;28;19917;-81
2023/06/11 06:54:10;;;;;;;;;;;24.00;99.90;;;;;;8346309;28;19929;-80
2023/06/11 06:58:10;;;;;;;;;;;23.70;99.90;;;;;;8333761;28;19913;-79
2023/06/11 07:02:11;;;;;;;;;;;22.70;99.90;;;;;;8353214;28;19909;-79
2023/06/11 07:06:11;;;;;;;;;;;22.10;99.90;;;;;;8325188;28;19944;-80
2023/06/11 07:10:12;;;;;;;;;;;22.70;99.90;;;;;;8337750;28;19909;-79
2023/06/11 07:14:12;;;;;;;;;;;22.90;99.90;;;;;;8326815;28;19913;-79
2023/06/11 07:18:13;;;;;;;;;;;22.30;99.90;;;;;;8356672;28;19970;-79
2023/06/11 07:22:13;;;;;;;;;;;22.40;99.90;;;;;;8342129;28;19978;-80
2023/06/11 07:26:15;;;;;;;;;;;22.70;99.90;;;;;;8345872;28;19913;-80
2023/06/11 07:30:15;;;;;;;;;;;23.40;99.90;;;;;;8350745;28;19913;-79
2023/06/11 07:34:16;;;;;;;;;;;23.60;99.90;;;;;;8356333;28;19920;-79
2023/06/11 07:38:17;;;;;;;;;;;23.60;99.90;;;;;;8339128;28;19917;-79
2023/06/11 07:42:17;;;;;;;;;;;23.10;99.90;;;;;;8335884;28;19994;-79
2023/06/11 07:46:18;;;;;;;;;;;23.60;99.90;;;;;;8357956;28;19917;-80
2023/06/11 07:50:18;;;;;;;;;;;23.60;99.90;;;;;;8346501;28;19913;-79
2023/06/11 07:54:19;;;;;;;;;;;23.70;99.90;;;;;;8327045;28;19909;-80
2023/06/11 07:58:19;;;;;;;;;;;23.70;99.90;;;;;;8333244;28;19958;-80
2023/06/11 08:02:20;;;;;;;;;;;24.10;99.90;;;;;;8357971;28;19916;-80
2023/06/11 08:06:20;;;;;;;;;;;24.80;99.90;;;;;;8348633;28;20323;-80
2023/06/11 08:10:21;;;;;;;;;;;24.60;99.90;;;;;;8350302;28;19920;-80
2023/06/11 08:14:22;;;;;;;;;;;25.20;99.90;;;;;;8344969;28;19913;-79
2023/06/11 08:18:22;;;;;;;;;;;25.90;99.90;;;;;;8341607;28;20476;-79
2023/06/11 08:22:23;;;;;;;;;;;25.70;99.90;;;;;;8336279;28;19952;-79
2023/06/11 08:26:25;;;;;;;;;;;25.40;99.90;;;;;;8355553;28;19986;-79
2023/06/11 08:30:34;;;;;;;;;;;25.40;99.90;;;;;;8343198;28;20351;-82
2023/06/11 08:34:35;;;;;;;;;;;25.30;99.90;;;;;;8339845;28;20467;-82
2023/06/11 08:38:35;;;;;;;;;;;25.00;99.90;;;;;;8363894;28;19917;-79
2023/06/11 08:42:36;;;;;;;;;;;24.80;99.90;;;;;;8362970;28;19943;-80
2023/06/11 08:46:40;;;;;;;;;;;24.30;99.90;;;;;;8358340;28;20289;-78
2023/06/11 08:50:41;;;;;;;;;;;24.10;99.90;;;;;;8335982;28;20285;-82
2023/06/11 08:54:41;;;;;;;;;;;24.00;99.90;;;;;;8340118;28;20011;-81
2023/06/11 08:58:43;;;;;;;;;;;24.70;99.90;;;;;;8334499;28;19927;-81
2023/06/11 09:02:44;;;;;;;;;;;25.40;99.90;;;;;;8338874;28;20290;-80
2023/06/11 09:06:58;;;;;;;;;;;25.10;99.90;;;;;;8346824;28;19914;-80
2023/06/11 09:10:58;;;;;;;;;;;24.60;99.90;;;;;;8339543;28;20499;-81
2023/06/11 09:14:59;;;;;;;;;;;24.60;99.90;;;;;;8337082;28;19921;-79
2023/06/11 09:18:59;;;;;;;;;;;24.90;99.90;;;;;;8358230;28;20427;-81
2023/06/11 09:23:00;;;;;;;;;;;25.20;99.90;;;;;;8343257;28;19916;-81
2023/06/11 09:27:05;;;;;;;;;;;25.90;99.90;;;;;;8342759;28;19948;-82
2023/06/11 09:31:05;;;;;;;;;;;26.30;99.90;;;;;;8350854;28;20488;-80
2023/06/11 09:35:07;;;;;;;;;;;26.40;99.90;;;;;;8335077;28;19958;-81
2023/06/11 09:39:08;;;;;;;;;;;26.80;99.90;;;;;;8353811;28;19917;-82
2023/06/11 09:43:09;;;;;;;;;;;26.70;99.90;;;;;;8327528;28;20278;-79
2023/06/11 09:47:09;;;;;;;;;;;26.40;99.90;;;;;;8353837;28;19917;-79
2023/06/11 09:51:10;;;;;;;;;;;26.00;99.90;;;;;;8334092;28;19963;-79
2023/06/11 09:55:11;;;;;;;;;;;26.30;99.90;;;;;;8348947;28;19920;-80
2023/06/11 09:59:12;;;;;;;;;;;26.10;99.90;;;;;;8347332;28;19952;-80
2023/06/11 10:03:12;;;;;;;;;;;25.60;99.90;;;;;;8331030;28;20378;-80
2023/06/11 10:07:14;;;;;;;;;;;26.40;99.90;;;;;;8343654;28;19924;-79
2023/06/11 10:11:15;;;;;;;;;;;26.90;99.10;;;;;;8331223;28;20484;-80
2023/06/11 10:15:16;;;;;;;;;;;26.20;98.20;;;;;;8358600;28;19920;-81
2023/06/11 10:19:17;;;;;;;;;;;26.00;99.90;;;;;;8353624;28;19928;-80
2023/06/11 10:23:17;;;;;;;;;;;26.10;99.90;;;;;;8343345;28;19920;-80
2023/06/11 10:27:18;;;;;;;;;;;26.40;99.50;;;;;;8324818;28;19909;-79
2023/06/11 10:31:25;;;;;;;;;;;26.20;97.30;;;;;;8334057;28;19908;-80
2023/06/11 10:35:30;;;;;;;;;;;25.90;97.70;;;;;;8333470;28;19921;-80
2023/06/11 10:39:36;;;;;;;;;;;26.20;99.30;;;;;;8348725;28;19925;-81
2023/06/11 10:43:38;;;;;;;;;;;26.30;96.20;;;;;;8353528;28;19920;-79
2023/06/11 10:47:43;;;;;;;;;;;26.20;95.70;;;;;;8342211;28;20520;-79
2023/06/11 10:51:45;;;;;;;;;;;26.10;94.60;;;;;;8338981;28;19913;-80
2023/06/11 10:55:47;;;;;;;;;;;27.00;94.40;;;;;;8347372;28;19913;-80
2023/06/11 10:59:49;;;;;;;;;;;28.00;93.20;;;;;;8344432;28;20400;-81
2023/06/11 11:03:50;;;;;;;;;;;28.70;90.80;;;;;;8340739;28;19956;-79
2023/06/11 11:07:54;;;;;;;;;;;28.80;88.90;;;;;;8353868;28;20351;-80
2023/06/11 11:11:58;;;;;;;;;;;29.50;85.50;;;;;;8348441;28;19913;-81
2023/06/11 11:16:00;;;;;;;;;;;29.70;87.30;;;;;;8339566;28;19913;-82
2023/06/11 11:20:00;;;;;;;;;;;28.00;85.10;;;;;;8355458;28;19920;-80
2023/06/11 11:24:01;;;;;;;;;;;28.50;85.40;;;;;;8343484;28;19917;-79
2023/06/11 11:28:01;;;;;;;;;;;29.90;86.20;;;;;;8363567;28;19909;-79
2023/06/11 11:32:02;;;;;;;;;;;29.80;77.10;;;;;;8362825;28;20377;-79
2023/06/11 11:36:03;;;;;;;;;;;29.80;79.70;;;;;;8364808;28;19916;-80
2023/06/11 11:40:08;;;;;;;;;;;29.40;75.00;;;;;;8363973;28;19944;-80
2023/06/11 11:44:08;;;;;;;;;;;27.90;82.40;;;;;;8354069;28;19917;-82
2023/06/11 11:48:09;;;;;;;;;;;28.50;79.90;;;;;;8331368;28;20438;-80
2023/06/11 11:52:11;;;;;;;;;;;29.20;80.00;;;;;;8340827;28;20031;-81
2023/06/11 11:56:12;;;;;;;;;;;30.90;75.70;;;;;;8335236;28;20343;-80
2023/06/11 12:00:23;;;;;;;;;;;30.90;72.10;;;;;;8337386;28;20011;-79
2023/06/11 12:04:36;;;;;;;;;;;30.60;72.30;;;;;;8337047;28;19915;-80
2023/06/11 12:08:36;;;;;;;;;;;29.70;70.00;;;;;;8334646;28;19909;-79
2023/06/11 12:12:37;;;;;;;;;;;30.70;72.00;;;;;;8340442;28;19919;-82
2023/06/11 12:16:39;;;;;;;;;;;31.00;70.00;;;;;;8345657;28;19915;-80
2023/06/11 12:20:40;;;;;;;;;;;31.40;67.60;;;;;;8357464;28;19913;-80
2023/06/11 12:24:41;;;;;;;;;;;31.20;69.80;;;;;;8338761;28;19983;-79
2023/06/11 12:28:41;;;;;;;;;;;30.10;68.20;;;;;;8343963;28;20074;-80
2023/06/11 12:32:42;;;;;;;;;;;30.10;69.70;;;;;;8354126;28;21202;-81
2023/06/11 12:36:43;;;;;;;;;;;30.90;64.20;;;;;;8333342;28;19924;-79
2023/06/11 12:40:43;;;;;;;;;;;31.40;63.30;;;;;;8349544;28;20618;-80
2023/06/11 12:44:46;;;;;;;;;;;32.40;60.60;;;;;;8357583;28;19923;-80
2023/06/11 12:48:47;;;;;;;;;;;32.90;60.00;;;;;;8323592;28;19913;-81
2023/06/11 12:52:47;;;;;;;;;;;32.30;59.00;;;;;;8356408;28;19913;-80
2023/06/11 12:56:48;;;;;;;;;;;31.70;59.30;;;;;;8354404;28;19913;-80
2023/06/11 13:00:48;;;;;;;;;;;32.00;60.00;;;;;;8356775;28;19917;-80
2023/06/11 13:04:49;;;;;;;;;;;32.10;59.00;;;;;;8330339;28;19913;-80
2023/06/11 13:08:50;;;;;;;;;;;30.90;61.20;;;;;;8356703;28;19963;-79
2023/06/11 13:12:54;;;;;;;;;;;31.60;59.80;;;;;;8361067;28;19913;-82
2023/06/11 13:16:55;;;;;;;;;;;31.60;57.90;;;;;;8336997;28;19938;-83
2023/06/11 13:20:58;;;;;;;;;;;30.40;59.00;;;;;;8341533;28;19920;-81
2023/06/11 13:24:59;;;;;;;;;;;31.00;59.10;;;;;;8345488;28;19944;-79
2023/06/11 13:28:59;;;;;;;;;;;31.70;59.40;;;;;;8354624;28;20646;-79
2023/06/11 13:33:00;;;;;;;;;;;32.00;58.20;;;;;;8349969;28;19935;-79
2023/06/11 13:37:00;;;;;;;;;;;32.60;54.90;;;;;;8361458;28;20000;-79
2023/06/11 13:41:01;;;;;;;;;;;33.90;53.50;;;;;;8358269;28;20012;-79
2023/06/11 13:45:02;;;;;;;;;;;34.80;51.30;;;;;;8357178;28;19909;-80
2023/06/11 13:49:03;;;;;;;;;;;35.20;51.30;;;;;;8348989;28;20363;-77
2023/06/11 13:53:03;;;;;;;;;;;34.00;49.90;;;;;;8354805;28;19920;-78
2023/06/11 13:57:04;;;;;;;;;;;32.10;50.40;;;;;;8333157;28;19909;-79
2023/06/11 14:01:04;;;;;;;;;;;32.00;53.30;;;;;;8345244;28;19916;-80
2023/06/11 14:05:05;;;;;;;;;;;32.80;51.10;;;;;;8352251;28;20266;-78
2023/06/11 14:09:06;;;;;;;;;;;33.70;52.10;;;;;;8321414;28;19921;-78
2023/06/11 14:13:06;;;;;;;;;;;33.70;50.40;;;;;;8347174;28;19912;-77
2023/06/11 14:17:07;;;;;;;;;;;33.50;49.20;;;;;;8352962;28;19959;-78
2023/06/11 14:21:08;;;;;;;;;;;31.80;49.50;;;;;;8362150;28;19935;-78
2023/06/11 14:25:08;;;;;;;;;;;32.70;51.60;;;;;;8362105;28;19939;-80
2023/06/11 14:29:09;;;;;;;;;;;34.30;48.40;;;;;;8344563;28;19913;-78
2023/06/11 14:33:10;;;;;;;;;;;35.10;47.10;;;;;;8349103;28;19913;-80
2023/06/11 14:37:11;;;;;;;;;;;35.80;47.20;;;;;;8358255;28;19919;-80
2023/06/11 14:41:12;;;;;;;;;;;34.30;48.20;;;;;;8356729;28;20274;-79
2023/06/11 14:45:12;;;;;;;;;;;32.90;49.50;;;;;;8355910;28;19916;-80
2023/06/11 14:49:17;;;;;;;;;;;34.70;47.70;;;;;;8358676;28;19919;-78
2023/06/11 14:53:17;;;;;;;;;;;34.50;47.10;;;;;;8353249;28;19917;-79
2023/06/11 14:57:18;;;;;;;;;;;34.60;46.30;;;;;;8348744;28;20007;-78
2023/06/11 15:01:19;;;;;;;;;;;33.80;46.70;;;;;;8360649;28;20504;-80
2023/06/11 15:05:19;;;;;;;;;;;33.60;49.30;;;;;;8336562;28;19909;-79
2023/06/11 15:09:21;;;;;;;;;;;32.80;47.50;;;;;;8360573;28;19913;-79
2023/06/11 15:13:22;;;;;;;;;;;33.50;47.10;;;;;;8352633;28;19916;-79
2023/06/11 15:17:22;;;;;;;;;;;34.40;47.60;;;;;;8359756;28;19919;-79
2023/06/11 15:21:23;;;;;;;;;;;33.50;47.10;;;;;;8359758;28;20381;-80
2023/06/11 15:25:23;;;;;;;;;;;32.70;48.50;;;;;;8352571;28;20534;-79
2023/06/11 15:29:24;;;;;;;;;;;32.60;49.50;;;;;;8354548;28;20841;-79
2023/06/11 15:33:24;;;;;;;;;;;31.70;50.40;;;;;;8341580;28;20380;-80
2023/06/11 15:37:25;;;;;;;;;;;31.60;51.00;;;;;;8356535;28;19923;-79
2023/06/11 15:41:26;;;;;;;;;;;31.20;49.30;;;;;;8357597;28;19913;-79
2023/06/11 15:45:27;;;;;;;;;;;29.80;52.30;;;;;;8346414;28;19931;-79
2023/06/11 15:49:28;;;;;;;;;;;29.20;54.30;;;;;;8356180;28;20389;-79
2023/06/11 15:53:28;;;;;;;;;;;27.70;55.30;;;;;;8350057;28;19920;-79
2023/06/11 15:57:29;;;;;;;;;;;26.60;59.10;;;;;;8341794;28;19913;-78
2023/06/11 16:01:29;;;;;;;;;;;26.30;59.20;;;;;;8331519;28;20405;-79
2023/06/11 16:05:30;;;;;;;;;;;26.10;60.10;;;;;;8340345;28;20039;-79
2023/06/11 16:09:33;;;;;;;;;;;25.70;59.60;;;;;;8358205;28;19909;-79
2023/06/11 16:13:34;;;;;;;;;;;25.70;59.60;;;;;;8338610;28;19921;-79
2023/06/11 16:17:34;;;;;;;;;;;25.80;58.90;;;;;;8339322;28;20381;-79
2023/06/11 16:21:35;;;;;;;;;;;25.90;58.40;;;;;;8342035;28;20018;-80
2023/06/11 16:25:35;;;;;;;;;;;25.80;59.00;;;;;;8357839;28;19917;-78
2023/06/11 16:29:36;;;;;;;;;;;25.70;59.50;;;;;;8352007;28;19913;-79
2023/06/11 16:33:36;;;;;;;;;;;25.40;58.90;;;;;;8338963;28;19913;-79
2023/06/11 16:37:37;;;;;;;;;;;25.50;61.10;;;;;;8354234;28;19909;-79
2023/06/11 16:41:39;;;;;;;;;;;25.60;60.20;;;;;;8347684;28;19916;-78
2023/06/11 16:45:40;;;;;;;;;;;25.70;60.70;;;;;;8341334;28;19920;-79
2023/06/11 16:49:40;;;;;;;;;;;25.50;59.30;;;;;;8355213;28;19913;-78
2023/06/11 16:53:41;;;;;;;;;;;25.40;57.10;;;;;;8338406;28;19921;-79
2023/06/11 16:57:41;;;;;;;;;;;25.20;58.00;;;;;;8341498;28;20258;-79
2023/06/11 17:01:42;;;;;;;;;;;25.00;60.20;;;;;;8359084;28;19920;-80
2023/06/11 17:05:42;;;;;;;;;;;24.80;61.50;;;;;;8352649;28;20000;-79
2023/06/11 17:09:43;;;;;;;;;;;24.70;60.40;;;;;;8336696;28;20003;-78
2023/06/11 17:13:43;;;;;;;;;;;24.50;59.20;;;;;;8342405;28;20043;-79
2023/06/11 17:17:44;;;;;;;;;;;24.40;59.60;;;;;;8334466;28;21026;-79
2023/06/11 17:21:45;;;;;;;;;;;24.30;60.20;;;;;;8350774;28;20459;-79
2023/06/11 17:25:45;;;;;;;;;;;24.20;60.20;;;;;;8334204;28;19916;-79
2023/06/11 17:29:46;;;;;;;;;;;24.10;59.50;;;;;;8342521;28;19924;-79
2023/06/11 17:33:48;;;;;;;;;;;23.90;60.50;;;;;;8335384;28;22442;-79
2023/06/11 17:37:49;;;;;;;;;;;23.80;60.40;;;;;;8337166;28;19945;-78
2023/06/11 17:45:52;;;;;;;;;;;23.60;63.90;;;;;;8393683;28;19928;-82
2023/06/11 17:49:52;;;;;;;;;;;23.50;64.30;;;;;;8382667;28;19931;-81
2023/06/11 17:53:53;;;;;;;;;;;23.50;65.60;;;;;;8344981;28;19920;-82
2023/06/11 17:57:54;;;;;;;;;;;23.40;65.20;;;;;;8337618;28;20205;-83
2023/06/11 18:01:54;;;;;;;;;;;23.30;65.40;;;;;;8353579;28;20276;-82
2023/06/11 18:05:55;;;;;;;;;;;23.20;63.70;;;;;;8341348;28;19913;-81
2023/06/11 18:09:55;;;;;;;;;;;23.10;64.60;;;;;;8350935;28;19917;-82
2023/06/11 18:13:55;;;;;;;;;;;23.00;65.80;;;;;;8356966;28;20282;-80
2023/06/11 18:17:56;;;;;;;;;;;22.80;67.40;;;;;;8356635;28;20389;-81
2023/06/11 18:21:56;;;;;;;;;;;22.40;67.70;;;;;;8335522;28;19917;-82
2023/06/11 18:25:57;;;;;;;;;;;22.30;69.50;;;;;;8345835;28;19913;-83
2023/06/11 18:29:57;;;;;;;;;;;22.00;71.20;;;;;;8333417;28;19922;-83
2023/06/11 18:33:58;;;;;;;;;;;21.90;71.80;;;;;;8337133;28;19909;-81
2023/06/11 18:37:59;;;;;;;;;;;21.70;71.70;;;;;;8358697;28;19909;-81
2023/06/11 18:42:00;;;;;;;;;;;21.50;73.80;;;;;;8356884;28;19917;-82
2023/06/11 18:46:01;;;;;;;;;;;20.90;74.20;;;;;;8330056;28;19917;-83
2023/06/11 18:50:04;;;;;;;;;;;21.20;74.40;;;;;;8341176;28;19917;-81
2023/06/11 18:54:04;;;;;;;;;;;21.00;75.50;;;;;;8355751;28;19910;-82
2023/06/11 18:58:05;;;;;;;;;;;20.90;75.50;;;;;;8342042;28;19973;-83
2023/06/11 19:02:06;;;;;;;;;;;20.70;76.30;;;;;;8361994;28;19936;-83
2023/06/11 19:06:07;;;;;;;;;;;20.70;77.50;;;;;;8367684;28;20365;-83
2023/06/11 19:10:10;;;;;;;;;;;20.30;80.20;;;;;;8358016;28;20007;-83
2023/06/11 19:14:11;;;;;;;;;;;19.90;80.60;;;;;;8350342;28;19944;-83
2023/06/11 19:18:12;;;;;;;;;;;19.50;83.60;;;;;;8350561;28;19963;-81
2023/06/11 19:22:12;;;;;;;;;;;19.50;83.50;;;;;;8350276;28;19920;-81
2023/06/11 19:26:15;;;;;;;;;;;19.10;85.40;;;;;;8342574;28;19959;-81
2023/06/11 19:30:16;;;;;;;;;;;18.80;87.80;;;;;;8342764;28;19988;-81
2023/06/11 19:34:16;;;;;;;;;;;18.40;90.10;;;;;;8360855;28;20360;-81
2023/06/11 19:38:16;;;;;;;;;;;18.10;90.70;;;;;;8332136;28;20408;-81
2023/06/11 19:42:17;;;;;;;;;;;18.00;90.40;;;;;;8356920;28;19924;-81
2023/06/11 19:46:17;;;;;;;;;;;17.90;90.50;;;;;;8347348;28;19913;-81
2023/06/11 19:50:22;;;;;;;;;;;17.90;90.90;;;;;;8341673;28;19970;-81
2023/06/11 19:54:23;;;;;;;;;;;17.90;91.30;;;;;;8346351;28;19924;-80
2023/06/11 19:58:23;;;;;;;;;;;17.60;91.70;;;;;;8347753;28;19923;-80
2023/06/11 20:02:23;;;;;;;;;;;17.40;93.20;;;;;;8375536;28;19947;-81
2023/06/11 20:06:24;;;;;;;;;;;16.80;93.90;;;;;;8330691;28;20395;-81
2023/06/11 20:10:27;;;;;;;;;;;16.90;94.40;;;;;;8330696;28;19913;-80
2023/06/11 20:14:28;;;;;;;;;;;16.90;94.30;;;;;;8335169;28;19935;-80
2023/06/11 20:18:28;;;;;;;;;;;16.90;95.30;;;;;;8341787;28;20125;-80
2023/06/11 20:22:39;;;;;;;;;;;17.10;95.90;;;;;;8343450;28;19919;-80
2023/06/11 20:26:40;;;;;;;;;;;16.70;96.10;;;;;;8331754;28;19912;-80
2023/06/11 20:30:40;;;;;;;;;;;16.40;96.40;;;;;;8361032;28;19963;-80
2023/06/11 20:34:41;;;;;;;;;;;16.60;97.10;;;;;;8364497;28;20270;-80
2023/06/11 20:38:41;;;;;;;;;;;16.10;97.70;;;;;;8345911;28;19935;-81
2023/06/11 20:42:42;;;;;;;;;;;16.10;98.20;;;;;;8355239;28;19920;-80
2023/06/11 20:46:42;;;;;;;;;;;16.30;99.50;;;;;;8337074;28;20349;-80
2023/06/11 20:50:43;;;;;;;;;;;16.30;99.90;;;;;;8338849;28;20566;-81
2023/06/11 20:54:43;;;;;;;;;;;15.70;99.90;;;;;;8358298;28;19910;-80
2023/06/11 20:58:44;;;;;;;;;;;15.30;99.90;;;;;;8335605;28;19909;-80
2023/06/11 21:02:44;;;;;;;;;;;15.80;99.90;;;;;;8331222;28;19916;-80
2023/06/11 21:06:44;;;;;;;;;;;15.40;99.90;;;;;;8330344;28;19917;-81
2023/06/11 21:10:45;;;;;;;;;;;15.60;99.90;;;;;;8331356;28;19917;-79
2023/06/11 21:14:46;;;;;;;;;;;15.50;99.90;;;;;;8342634;28;19917;-80
2023/06/11 21:18:46;;;;;;;;;;;15.30;99.90;;;;;;8339705;28;19912;-80
2023/06/11 21:22:47;;;;;;;;;;;15.30;99.90;;;;;;8345793;28;19915;-80
2023/06/11 21:26:47;;;;;;;;;;;15.10;99.90;;;;;;8354574;28;19921;-80
2023/06/11 21:30:48;;;;;;;;;;;14.60;99.90;;;;;;8333771;28;19916;-80
2023/06/11 21:34:48;;;;;;;;;;;15.10;99.90;;;;;;8319873;28;20399;-80
2023/06/11 21:38:49;;;;;;;;;;;15.00;99.90;;;;;;8348979;28;19973;-80
2023/06/11 21:42:49;;;;;;;;;;;15.20;99.90;;;;;;8336307;28;19917;-80
2023/06/11 21:46:50;;;;;;;;;;;14.30;99.90;;;;;;8327804;28;19910;-81
2023/06/11 21:50:50;;;;;;;;;;;14.80;99.90;;;;;;8336928;28;19913;-80
2023/06/11 21:54:50;;;;;;;;;;;14.60;99.90;;;;;;8358441;28;19944;-80
2023/06/11 21:58:51;;;;;;;;;;;14.80;99.90;;;;;;8338238;28;19913;-79
2023/06/11 22:02:52;;;;;;;;;;;14.70;99.90;;;;;;8329812;28;20381;-80
2023/06/11 22:06:52;;;;;;;;;;;14.60;99.90;;;;;;8328163;28;19916;-80
2023/06/11 22:10:53;;;;;;;;;;;14.70;99.90;;;;;;8335404;28;19913;-80
2023/06/11 22:14:53;;;;;;;;;;;14.00;99.90;;;;;;8357713;28;19924;-80
2023/06/11 22:18:53;;;;;;;;;;;14.20;99.90;;;;;;8340981;28;19909;-80
2023/06/11 22:22:57;;;;;;;;;;;13.90;99.90;;;;;;8342200;28;19908;-80
2023/06/11 22:27:00;;;;;;;;;;;14.10;99.90;;;;;;8333158;28;19920;-80
2023/06/11 22:31:00;;;;;;;;;;;13.70;99.90;;;;;;8332728;28;19909;-80
2023/06/11 22:35:01;;;;;;;;;;;13.20;99.90;;;;;;8332811;28;20421;-81
2023/06/11 22:39:02;;;;;;;;;;;12.90;99.90;;;;;;8337905;28;19921;-79
2023/06/11 22:43:06;;;;;;;;;;;12.70;99.90;;;;;;8257574;28;19980;-79
2023/06/11 22:47:07;;;;;;;;;;;12.50;99.90;;;;;;8289231;28;20357;-79
2023/06/11 22:51:12;;;;;;;;;;;12.60;99.90;;;;;;8347476;28;19909;-79
2023/06/11 22:55:13;;;;;;;;;;;12.50;99.90;;;;;;8340252;28;19909;-80
2023/06/11 22:59:16;;;;;;;;;;;12.10;99.90;;;;;;8348123;28;19920;-80
2023/06/11 23:03:17;;;;;;;;;;;12.70;99.90;;;;;;8344545;28;20004;-80
2023/06/11 23:07:18;;;;;;;;;;;13.20;99.90;;;;;;8340798;28;19913;-80
2023/06/11 23:11:18;;;;;;;;;;;13.00;99.90;;;;;;8325971;28;20523;-80
2023/06/11 23:15:19;;;;;;;;;;;12.70;99.90;;;;;;8352878;28;19913;-79
2023/06/11 23:19:25;;;;;;;;;;;12.40;99.90;;;;;;8318901;28;20374;-80
2023/06/11 23:23:30;;;;;;;;;;;11.50;99.90;;;;;;8343586;28;19909;-80
2023/06/11 23:27:33;;;;;;;;;;;12.00;99.90;;;;;;8333247;28;19909;-80